sensor_id;sensor_type;location;lat;lon;timestamp;pressure;altitude;pressure_sealevel;temperature;humidity
63691;BME280;49837;57.280;27.070;2024-01-15T00:00:07;97150.23;;;-7.93;100.0
63691;BME280;49837;57.280;27.070;2024-01-15T00:01:06;97151.3;;;-7.95;100.0
63691;BME280;49837;57.280;27.070;2024-01-15T00:02:07;97148.31;;;-7.99;100.0
63691;BME280;49837;57.280;27.070;2024-01-15T00:03:07;97149.36;;;-7.99;100.0
63691;BME280;49837;57.280;27.070;2024-01-15T00:04:07;97147.98;;;-7.97;100.0
63691;BME280;49837;57.280;27.070;2024-01-15T00:05:08;97149.94;;;-7.99;100.0
63691;BME280;49837;57.280;27.070;2024-01-15T00:06:08;97147.19;;;-8.03;100.0
63691;BME280;49837;57.280;27.070;2024-01-15T00:07:09;97151.97;;;-8.02;100.0
63691;BME280;49837;57.280;27.070;2024-01-15T00:08:09;97151.66;;;-8.03;100.0
63691;BME280;49837;57.280;27.070;2024-01-15T00:09:09;97150.09;;;-8.03;100.0
63691;BME280;49837;57.280;27.070;2024-01-15T00:10:10;97147.33;;;-7.99;100.0
63691;BME280;49837;57.280;27.070;2024-01-15T00:11:10;97154.94;;;-7.99;100.0
63691;BME280;49837;57.280;27.070;2024-01-15T00:12:11;97150.89;;;-8.0;100.0
63691;BME280;49837;57.280;27.070;2024-01-15T00:13:11;97149.91;;;-7.97;100.0
63691;BME280;49837;57.280;27.070;2024-01-15T00:14:11;97149.53;;;-7.98;100.0
63691;BME280;49837;57.280;27.070;2024-01-15T00:15:12;97146.94;;;-7.96;100.0
63691;BME280;49837;57.280;27.070;2024-01-15T00:16:12;97146.73;;;-7.92;100.0
63691;BME280;49837;57.280;27.070;2024-01-15T00:17:12;97152.73;;;-7.92;100.0
63691;BME280;49837;57.280;27.070;2024-01-15T00:18:13;97152.17;;;-7.91;100.0
63691;BME280;49837;57.280;27.070;2024-01-15T00:19:13;97147.08;;;-7.94;100.0
63691;BME280;49837;57.280;27.070;2024-01-15T00:20:14;97142.89;;;-7.95;100.0
63691;BME280;49837;57.280;27.070;2024-01-15T00:21:14;97146.91;;;-7.93;100.0
63691;BME280;49837;57.280;27.070;2024-01-15T00:22:14;97142.9;;;-7.98;100.0
63691;BME280;49837;57.280;27.070;2024-01-15T00:23:15;97140.87;;;-7.97;100.0
63691;BME280;49837;57.280;27.070;2024-01-15T00:24:15;97141.66;;;-7.95;100.0
63691;BME280;49837;57.280;27.070;2024-01-15T00:25:15;97139.23;;;-7.96;100.0
63691;BME280;49837;57.280;27.070;2024-01-15T00:26:16;97137.45;;;-7.97;100.0
63691;BME280;49837;57.280;27.070;2024-01-15T00:27:16;97134.8;;;-8.0;100.0
63691;BME280;49837;57.280;27.070;2024-01-15T00:28:17;97131.63;;;-7.98;100.0
63691;BME280;49837;57.280;27.070;2024-01-15T00:29:17;97135.45;;;-7.96;100.0
63691;BME280;49837;57.280;27.070;2024-01-15T00:30:17;97138.11;;;-7.95;100.0
63691;BME280;49837;57.280;27.070;2024-01-15T00:31:18;97138.03;;;-7.96;100.0
63691;BME280;49837;57.280;27.070;2024-01-15T00:32:18;97134.99;;;-7.89;100.0
63691;BME280;49837;57.280;27.070;2024-01-15T00:33:18;97135.63;;;-7.88;100.0
63691;BME280;49837;57.280;27.070;2024-01-15T00:34:19;97136.3;;;-7.87;100.0
63691;BME280;49837;57.280;27.070;2024-01-15T00:35:19;97132.47;;;-7.88;100.0
63691;BME280;49837;57.280;27.070;2024-01-15T00:36:20;97135.55;;;-7.88;100.0
63691;BME280;49837;57.280;27.070;2024-01-15T00:37:20;97133.67;;;-7.85;100.0
63691;BME280;49837;57.280;27.070;2024-01-15T00:38:20;97133.45;;;-7.88;100.0
63691;BME280;49837;57.280;27.070;2024-01-15T00:39:21;97136.22;;;-7.9;100.0
63691;BME280;49837;57.280;27.070;2024-01-15T00:40:21;97134.6;;;-7.9;100.0
63691;BME280;49837;57.280;27.070;2024-01-15T00:41:21;97135.25;;;-7.9;100.0
63691;BME280;49837;57.280;27.070;2024-01-15T00:42:22;97130.39;;;-7.89;100.0
63691;BME280;49837;57.280;27.070;2024-01-15T00:43:22;97133.59;;;-7.85;100.0
63691;BME280;49837;57.280;27.070;2024-01-15T00:44:23;97132.22;;;-7.84;100.0
63691;BME280;49837;57.280;27.070;2024-01-15T00:45:23;97129.0;;;-7.84;100.0
63691;BME280;49837;57.280;27.070;2024-01-15T00:46:23;97127.76;;;-7.81;100.0
63691;BME280;49837;57.280;27.070;2024-01-15T00:47:24;97123.36;;;-7.77;100.0
63691;BME280;49837;57.280;27.070;2024-01-15T00:48:24;97122.47;;;-7.76;100.0
63691;BME280;49837;57.280;27.070;2024-01-15T00:49:26;97121.03;;;-7.78;100.0
63691;BME280;49837;57.280;27.070;2024-01-15T00:50:25;97119.98;;;-7.79;100.0
63691;BME280;49837;57.280;27.070;2024-01-15T00:51:25;97124.4;;;-7.73;100.0
63691;BME280;49837;57.280;27.070;2024-01-15T00:52:26;97121.87;;;-7.71;100.0
63691;BME280;49837;57.280;27.070;2024-01-15T00:53:26;97121.06;;;-7.71;100.0
63691;BME280;49837;57.280;27.070;2024-01-15T00:54:27;97125.44;;;-7.73;100.0
63691;BME280;49837;57.280;27.070;2024-01-15T00:55:28;97124.31;;;-7.75;100.0
63691;BME280;49837;57.280;27.070;2024-01-15T00:56:27;97122.23;;;-7.79;100.0
63691;BME280;49837;57.280;27.070;2024-01-15T00:57:28;97121.8;;;-7.75;100.0
63691;BME280;49837;57.280;27.070;2024-01-15T00:58:28;97122.72;;;-7.78;100.0
63691;BME280;49837;57.280;27.070;2024-01-15T00:59:28;97123.22;;;-7.79;100.0
63691;BME280;49837;57.280;27.070;2024-01-15T01:00:29;97127.56;;;-7.74;100.0
63691;BME280;49837;57.280;27.070;2024-01-15T01:01:29;97126.71;;;-7.71;100.0
63691;BME280;49837;57.280;27.070;2024-01-15T01:02:29;97126.63;;;-7.68;100.0
63691;BME280;49837;57.280;27.070;2024-01-15T01:03:30;97124.92;;;-7.7;100.0
63691;BME280;49837;57.280;27.070;2024-01-15T01:04:30;97121.46;;;-7.72;100.0
63691;BME280;49837;57.280;27.070;2024-01-15T01:05:31;97116.47;;;-7.73;100.0
63691;BME280;49837;57.280;27.070;2024-01-15T01:06:31;97116.55;;;-7.72;100.0
63691;BME280;49837;57.280;27.070;2024-01-15T01:07:31;97119.77;;;-7.71;100.0
63691;BME280;49837;57.280;27.070;2024-01-15T01:08:32;97119.59;;;-7.71;100.0
63691;BME280;49837;57.280;27.070;2024-01-15T01:09:32;97116.61;;;-7.7;100.0
63691;BME280;49837;57.280;27.070;2024-01-15T01:10:32;97114.08;;;-7.7;100.0
63691;BME280;49837;57.280;27.070;2024-01-15T01:11:33;97118.17;;;-7.72;100.0
63691;BME280;49837;57.280;27.070;2024-01-15T01:12:33;97113.7;;;-7.75;100.0
63691;BME280;49837;57.280;27.070;2024-01-15T01:13:34;97107.9;;;-7.78;100.0
63691;BME280;49837;57.280;27.070;2024-01-15T01:14:34;97106.02;;;-7.72;100.0
63691;BME280;49837;57.280;27.070;2024-01-15T01:15:34;97107.61;;;-7.69;100.0
63691;BME280;49837;57.280;27.070;2024-01-15T01:16:35;97108.9;;;-7.67;100.0
63691;BME280;49837;57.280;27.070;2024-01-15T01:17:35;97107.89;;;-7.61;100.0
63691;BME280;49837;57.280;27.070;2024-01-15T01:18:36;97109.0;;;-7.6;100.0
63691;BME280;49837;57.280;27.070;2024-01-15T01:19:36;97101.66;;;-7.62;100.0
63691;BME280;49837;57.280;27.070;2024-01-15T01:20:36;97102.58;;;-7.66;100.0
63691;BME280;49837;57.280;27.070;2024-01-15T01:21:37;97102.64;;;-7.62;100.0
63691;BME280;49837;57.280;27.070;2024-01-15T01:22:37;97101.23;;;-7.56;100.0
63691;BME280;49837;57.280;27.070;2024-01-15T01:23:37;97101.09;;;-7.63;100.0
63691;BME280;49837;57.280;27.070;2024-01-15T01:24:38;97101.19;;;-7.63;100.0
63691;BME280;49837;57.280;27.070;2024-01-15T01:25:38;97104.04;;;-7.57;100.0
63691;BME280;49837;57.280;27.070;2024-01-15T01:26:39;97102.9;;;-7.53;100.0
63691;BME280;49837;57.280;27.070;2024-01-15T01:27:39;97098.66;;;-7.51;100.0
63691;BME280;49837;57.280;27.070;2024-01-15T01:28:39;97098.05;;;-7.55;100.0
63691;BME280;49837;57.280;27.070;2024-01-15T01:29:40;97096.99;;;-7.52;100.0
63691;BME280;49837;57.280;27.070;2024-01-15T01:30:42;97096.2;;;-7.54;100.0
63691;BME280;49837;57.280;27.070;2024-01-15T01:31:43;97096.9;;;-7.54;100.0
63691;BME280;49837;57.280;27.070;2024-01-15T01:32:42;97099.33;;;-7.55;100.0
63691;BME280;49837;57.280;27.070;2024-01-15T01:33:43;97092.61;;;-7.53;100.0
63691;BME280;49837;57.280;27.070;2024-01-15T01:34:43;97093.09;;;-7.51;100.0
63691;BME280;49837;57.280;27.070;2024-01-15T01:35:44;97096.41;;;-7.51;100.0
63691;BME280;49837;57.280;27.070;2024-01-15T01:36:44;97092.95;;;-7.53;100.0
63691;BME280;49837;57.280;27.070;2024-01-15T01:37:44;97096.22;;;-7.48;100.0
63691;BME280;49837;57.280;27.070;2024-01-15T01:38:45;97091.03;;;-7.47;100.0
63691;BME280;49837;57.280;27.070;2024-01-15T01:39:45;97088.89;;;-7.53;100.0
63691;BME280;49837;57.280;27.070;2024-01-15T01:40:45;97088.83;;;-7.55;100.0
63691;BME280;49837;57.280;27.070;2024-01-15T01:41:46;97085.52;;;-7.55;100.0
63691;BME280;49837;57.280;27.070;2024-01-15T01:42:48;97083.28;;;-7.5;100.0
63691;BME280;49837;57.280;27.070;2024-01-15T01:43:47;97088.2;;;-7.47;100.0
63691;BME280;49837;57.280;27.070;2024-01-15T01:44:47;97086.41;;;-7.47;100.0
63691;BME280;49837;57.280;27.070;2024-01-15T01:45:48;97081.02;;;-7.5;100.0
63691;BME280;49837;57.280;27.070;2024-01-15T01:46:48;97084.27;;;-7.51;100.0
63691;BME280;49837;57.280;27.070;2024-01-15T01:47:48;97083.45;;;-7.52;100.0
63691;BME280;49837;57.280;27.070;2024-01-15T01:48:49;97084.85;;;-7.52;100.0
63691;BME280;49837;57.280;27.070;2024-01-15T01:49:49;97080.97;;;-7.52;100.0
63691;BME280;49837;57.280;27.070;2024-01-15T01:50:49;97078.39;;;-7.54;100.0
63691;BME280;49837;57.280;27.070;2024-01-15T01:51:50;97077.03;;;-7.49;100.0
63691;BME280;49837;57.280;27.070;2024-01-15T01:52:50;97076.65;;;-7.5;100.0
63691;BME280;49837;57.280;27.070;2024-01-15T01:53:51;97083.29;;;-7.5;100.0
63691;BME280;49837;57.280;27.070;2024-01-15T01:54:52;97081.58;;;-7.49;100.0
63691;BME280;49837;57.280;27.070;2024-01-15T01:55:52;97072.59;;;-7.49;100.0
63691;BME280;49837;57.280;27.070;2024-01-15T01:56:52;97072.66;;;-7.49;100.0
63691;BME280;49837;57.280;27.070;2024-01-15T01:57:52;97075.97;;;-7.47;100.0
63691;BME280;49837;57.280;27.070;2024-01-15T01:58:53;97081.7;;;-7.45;100.0
63691;BME280;49837;57.280;27.070;2024-01-15T01:59:53;97077.16;;;-7.45;100.0
63691;BME280;49837;57.280;27.070;2024-01-15T02:00:53;97077.09;;;-7.46;100.0
63691;BME280;49837;57.280;27.070;2024-01-15T02:01:56;97070.36;;;-7.43;100.0
63691;BME280;49837;57.280;27.070;2024-01-15T02:02:54;97077.91;;;-7.46;100.0
63691;BME280;49837;57.280;27.070;2024-01-15T02:03:55;97078.78;;;-7.45;100.0
63691;BME280;49837;57.280;27.070;2024-01-15T02:04:55;97078.14;;;-7.47;100.0
63691;BME280;49837;57.280;27.070;2024-01-15T02:05:56;97074.25;;;-7.45;100.0
63691;BME280;49837;57.280;27.070;2024-01-15T02:06:56;97072.17;;;-7.48;100.0
63691;BME280;49837;57.280;27.070;2024-01-15T02:07:56;97075.23;;;-7.44;100.0
63691;BME280;49837;57.280;27.070;2024-01-15T02:08:57;97069.53;;;-7.42;100.0
63691;BME280;49837;57.280;27.070;2024-01-15T02:09:57;97069.84;;;-7.41;100.0
63691;BME280;49837;57.280;27.070;2024-01-15T02:10:57;97067.15;;;-7.47;100.0
63691;BME280;49837;57.280;27.070;2024-01-15T02:11:58;97071.1;;;-7.44;100.0
63691;BME280;49837;57.280;27.070;2024-01-15T02:12:58;97071.47;;;-7.42;100.0
63691;BME280;49837;57.280;27.070;2024-01-15T02:13:58;97070.02;;;-7.43;100.0
63691;BME280;49837;57.280;27.070;2024-01-15T02:14:59;97067.32;;;-7.38;100.0
63691;BME280;49837;57.280;27.070;2024-01-15T02:15:59;97066.81;;;-7.35;100.0
63691;BME280;49837;57.280;27.070;2024-01-15T02:17:00;97069.5;;;-7.36;100.0
63691;BME280;49837;57.280;27.070;2024-01-15T02:18:04;97068.97;;;-7.4;100.0
63691;BME280;49837;57.280;27.070;2024-01-15T02:19:02;97066.05;;;-7.41;100.0
63691;BME280;49837;57.280;27.070;2024-01-15T02:20:03;97070.82;;;-7.39;100.0
63691;BME280;49837;57.280;27.070;2024-01-15T02:21:04;97064.83;;;-7.39;100.0
63691;BME280;49837;57.280;27.070;2024-01-15T02:22:04;97068.2;;;-7.39;100.0
63691;BME280;49837;57.280;27.070;2024-01-15T02:23:14;97061.27;;;-7.4;100.0
63691;BME280;49837;57.280;27.070;2024-01-15T02:24:07;97060.12;;;-7.41;100.0
63691;BME280;49837;57.280;27.070;2024-01-15T02:25:07;97058.55;;;-7.36;100.0
63691;BME280;49837;57.280;27.070;2024-01-15T02:26:08;97062.96;;;-7.4;100.0
63691;BME280;49837;57.280;27.070;2024-01-15T02:27:09;97063.46;;;-7.4;100.0
63691;BME280;49837;57.280;27.070;2024-01-15T02:28:10;97061.63;;;-7.37;100.0
63691;BME280;49837;57.280;27.070;2024-01-15T02:29:09;97059.67;;;-7.34;100.0
63691;BME280;49837;57.280;27.070;2024-01-15T02:30:13;97058.4;;;-7.36;100.0
63691;BME280;49837;57.280;27.070;2024-01-15T02:31:11;97060.65;;;-7.35;100.0
63691;BME280;49837;57.280;27.070;2024-01-15T02:32:11;97062.69;;;-7.34;100.0
63691;BME280;49837;57.280;27.070;2024-01-15T02:33:12;97058.8;;;-7.34;100.0
63691;BME280;49837;57.280;27.070;2024-01-15T02:34:12;97059.17;;;-7.32;100.0
63691;BME280;49837;57.280;27.070;2024-01-15T02:35:12;97060.07;;;-7.34;100.0
63691;BME280;49837;57.280;27.070;2024-01-15T02:36:13;97060.36;;;-7.28;100.0
63691;BME280;49837;57.280;27.070;2024-01-15T02:37:14;97061.57;;;-7.29;100.0
63691;BME280;49837;57.280;27.070;2024-01-15T02:38:13;97063.12;;;-7.31;100.0
63691;BME280;49837;57.280;27.070;2024-01-15T02:39:14;97060.29;;;-7.31;100.0
63691;BME280;49837;57.280;27.070;2024-01-15T02:40:15;97062.7;;;-7.29;100.0
63691;BME280;49837;57.280;27.070;2024-01-15T02:41:15;97061.44;;;-7.31;100.0
63691;BME280;49837;57.280;27.070;2024-01-15T02:42:15;97066.45;;;-7.3;100.0
63691;BME280;49837;57.280;27.070;2024-01-15T02:43:15;97059.47;;;-7.29;100.0
63691;BME280;49837;57.280;27.070;2024-01-15T02:44:16;97062.06;;;-7.28;100.0
63691;BME280;49837;57.280;27.070;2024-01-15T02:45:17;97059.45;;;-7.26;100.0
63691;BME280;49837;57.280;27.070;2024-01-15T02:46:17;97062.37;;;-7.26;100.0
63691;BME280;49837;57.280;27.070;2024-01-15T02:47:17;97059.64;;;-7.22;100.0
63691;BME280;49837;57.280;27.070;2024-01-15T02:48:17;97060.08;;;-7.17;100.0
63691;BME280;49837;57.280;27.070;2024-01-15T02:49:18;97059.95;;;-7.2;100.0
63691;BME280;49837;57.280;27.070;2024-01-15T02:50:18;97055.35;;;-7.19;100.0
63691;BME280;49837;57.280;27.070;2024-01-15T02:51:18;97056.88;;;-7.21;100.0
63691;BME280;49837;57.280;27.070;2024-01-15T02:52:19;97053.9;;;-7.2;100.0
63691;BME280;49837;57.280;27.070;2024-01-15T02:53:19;97056.56;;;-7.2;100.0
63691;BME280;49837;57.280;27.070;2024-01-15T02:54:20;97055.53;;;-7.22;100.0
63691;BME280;49837;57.280;27.070;2024-01-15T02:55:20;97053.41;;;-7.2;100.0
63691;BME280;49837;57.280;27.070;2024-01-15T02:56:20;97051.12;;;-7.18;100.0
63691;BME280;49837;57.280;27.070;2024-01-15T02:57:21;97053.25;;;-7.19;100.0
63691;BME280;49837;57.280;27.070;2024-01-15T02:58:21;97052.2;;;-7.22;100.0
63691;BME280;49837;57.280;27.070;2024-01-15T02:59:22;97051.5;;;-7.17;100.0
63691;BME280;49837;57.280;27.070;2024-01-15T03:00:22;97049.16;;;-7.17;100.0
63691;BME280;49837;57.280;27.070;2024-01-15T03:01:22;97046.97;;;-7.16;100.0
63691;BME280;49837;57.280;27.070;2024-01-15T03:02:23;97048.62;;;-7.19;100.0
63691;BME280;49837;57.280;27.070;2024-01-15T03:03:23;97045.29;;;-7.19;100.0
63691;BME280;49837;57.280;27.070;2024-01-15T03:04:24;97042.76;;;-7.18;100.0
63691;BME280;49837;57.280;27.070;2024-01-15T03:05:24;97046.0;;;-7.18;100.0
63691;BME280;49837;57.280;27.070;2024-01-15T03:06:24;97046.09;;;-7.19;100.0
63691;BME280;49837;57.280;27.070;2024-01-15T03:07:25;97044.66;;;-7.19;100.0
63691;BME280;49837;57.280;27.070;2024-01-15T03:08:25;97043.31;;;-7.16;100.0
63691;BME280;49837;57.280;27.070;2024-01-15T03:09:25;97045.7;;;-7.12;100.0
63691;BME280;49837;57.280;27.070;2024-01-15T03:10:26;97046.27;;;-7.11;100.0
63691;BME280;49837;57.280;27.070;2024-01-15T03:11:26;97043.84;;;-7.11;100.0
63691;BME280;49837;57.280;27.070;2024-01-15T03:12:27;97046.52;;;-7.11;100.0
63691;BME280;49837;57.280;27.070;2024-01-15T03:13:27;97043.06;;;-7.07;100.0
63691;BME280;49837;57.280;27.070;2024-01-15T03:14:27;97042.66;;;-7.06;100.0
63691;BME280;49837;57.280;27.070;2024-01-15T03:15:28;97039.26;;;-7.06;100.0
63691;BME280;49837;57.280;27.070;2024-01-15T03:16:28;97038.58;;;-7.05;100.0
63691;BME280;49837;57.280;27.070;2024-01-15T03:17:28;97040.03;;;-7.05;100.0
63691;BME280;49837;57.280;27.070;2024-01-15T03:18:29;97042.45;;;-7.01;100.0
63691;BME280;49837;57.280;27.070;2024-01-15T03:19:29;97036.44;;;-7.02;100.0
63691;BME280;49837;57.280;27.070;2024-01-15T03:20:30;97031.17;;;-7.01;100.0
63691;BME280;49837;57.280;27.070;2024-01-15T03:21:30;97033.35;;;-7.06;100.0
63691;BME280;49837;57.280;27.070;2024-01-15T03:22:30;97038.56;;;-7.04;100.0
63691;BME280;49837;57.280;27.070;2024-01-15T03:23:31;97033.65;;;-7.03;100.0
63691;BME280;49837;57.280;27.070;2024-01-15T03:24:32;97037.42;;;-7.01;100.0
63691;BME280;49837;57.280;27.070;2024-01-15T03:25:32;97037.92;;;-7.02;100.0
63691;BME280;49837;57.280;27.070;2024-01-15T03:26:32;97036.86;;;-7.0;100.0
63691;BME280;49837;57.280;27.070;2024-01-15T03:27:32;97036.33;;;-6.98;100.0
63691;BME280;49837;57.280;27.070;2024-01-15T03:28:33;97037.14;;;-6.96;100.0
63691;BME280;49837;57.280;27.070;2024-01-15T03:29:33;97034.73;;;-6.98;100.0
63691;BME280;49837;57.280;27.070;2024-01-15T03:30:34;97034.92;;;-6.94;100.0
63691;BME280;49837;57.280;27.070;2024-01-15T03:31:34;97036.52;;;-6.91;100.0
63691;BME280;49837;57.280;27.070;2024-01-15T03:32:34;97031.62;;;-6.88;100.0
63691;BME280;49837;57.280;27.070;2024-01-15T03:33:35;97036.62;;;-6.85;100.0
63691;BME280;49837;57.280;27.070;2024-01-15T03:34:35;97033.77;;;-6.85;100.0
63691;BME280;49837;57.280;27.070;2024-01-15T03:35:36;97032.75;;;-6.87;100.0
63691;BME280;49837;57.280;27.070;2024-01-15T03:36:36;97037.28;;;-6.85;100.0
63691;BME280;49837;57.280;27.070;2024-01-15T03:37:37;97035.63;;;-6.85;100.0
63691;BME280;49837;57.280;27.070;2024-01-15T03:38:40;97033.95;;;-6.86;100.0
63691;BME280;49837;57.280;27.070;2024-01-15T03:39:38;97029.58;;;-6.86;100.0
63691;BME280;49837;57.280;27.070;2024-01-15T03:40:39;97031.12;;;-6.88;100.0
63691;BME280;49837;57.280;27.070;2024-01-15T03:41:39;97029.98;;;-6.87;100.0
63691;BME280;49837;57.280;27.070;2024-01-15T03:42:39;97032.08;;;-6.84;100.0
63691;BME280;49837;57.280;27.070;2024-01-15T03:43:40;97033.0;;;-6.81;100.0
63691;BME280;49837;57.280;27.070;2024-01-15T03:44:40;97030.97;;;-6.81;100.0
63691;BME280;49837;57.280;27.070;2024-01-15T03:45:40;97027.88;;;-6.81;100.0
63691;BME280;49837;57.280;27.070;2024-01-15T03:46:41;97029.2;;;-6.81;100.0
63691;BME280;49837;57.280;27.070;2024-01-15T03:47:41;97028.3;;;-6.82;100.0
63691;BME280;49837;57.280;27.070;2024-01-15T03:48:42;97027.59;;;-6.84;100.0
63691;BME280;49837;57.280;27.070;2024-01-15T03:49:42;97026.41;;;-6.85;100.0
63691;BME280;49837;57.280;27.070;2024-01-15T03:50:43;97029.82;;;-6.85;100.0
63691;BME280;49837;57.280;27.070;2024-01-15T03:51:43;97025.98;;;-6.83;100.0
63691;BME280;49837;57.280;27.070;2024-01-15T03:52:43;97021.3;;;-6.78;100.0
63691;BME280;49837;57.280;27.070;2024-01-15T03:53:44;97019.62;;;-6.74;100.0
63691;BME280;49837;57.280;27.070;2024-01-15T03:54:44;97020.41;;;-6.7;100.0
63691;BME280;49837;57.280;27.070;2024-01-15T03:55:44;97017.62;;;-6.68;100.0
63691;BME280;49837;57.280;27.070;2024-01-15T03:56:45;97020.23;;;-6.65;100.0
63691;BME280;49837;57.280;27.070;2024-01-15T03:57:46;97020.7;;;-6.62;100.0
63691;BME280;49837;57.280;27.070;2024-01-15T03:58:46;97020.36;;;-6.59;100.0
63691;BME280;49837;57.280;27.070;2024-01-15T03:59:47;97018.49;;;-6.61;100.0
63691;BME280;49837;57.280;27.070;2024-01-15T04:00:47;97019.38;;;-6.66;100.0
63691;BME280;49837;57.280;27.070;2024-01-15T04:01:50;97015.72;;;-6.65;100.0
63691;BME280;49837;57.280;27.070;2024-01-15T04:02:48;97013.2;;;-6.63;100.0
63691;BME280;49837;57.280;27.070;2024-01-15T04:03:48;97018.57;;;-6.59;100.0
63691;BME280;49837;57.280;27.070;2024-01-15T04:04:49;97017.82;;;-6.59;100.0
63691;BME280;49837;57.280;27.070;2024-01-15T04:05:49;97015.23;;;-6.6;100.0
63691;BME280;49837;57.280;27.070;2024-01-15T04:06:50;97016.12;;;-6.58;100.0
63691;BME280;49837;57.280;27.070;2024-01-15T04:07:50;97013.02;;;-6.56;100.0
63691;BME280;49837;57.280;27.070;2024-01-15T04:08:50;97010.96;;;-6.53;100.0
63691;BME280;49837;57.280;27.070;2024-01-15T04:09:51;97011.36;;;-6.53;100.0
63691;BME280;49837;57.280;27.070;2024-01-15T04:10:51;97010.33;;;-6.54;100.0
63691;BME280;49837;57.280;27.070;2024-01-15T04:11:52;97009.59;;;-6.55;100.0
63691;BME280;49837;57.280;27.070;2024-01-15T04:12:52;97010.88;;;-6.61;100.0
63691;BME280;49837;57.280;27.070;2024-01-15T04:13:52;97009.84;;;-6.61;100.0
63691;BME280;49837;57.280;27.070;2024-01-15T04:14:53;97004.98;;;-6.64;100.0
63691;BME280;49837;57.280;27.070;2024-01-15T04:15:53;97010.16;;;-6.68;100.0
63691;BME280;49837;57.280;27.070;2024-01-15T04:16:53;97009.3;;;-6.71;100.0
63691;BME280;49837;57.280;27.070;2024-01-15T04:17:54;97004.7;;;-6.73;100.0
63691;BME280;49837;57.280;27.070;2024-01-15T04:18:54;97007.42;;;-6.68;100.0
63691;BME280;49837;57.280;27.070;2024-01-15T04:19:55;97004.41;;;-6.68;100.0
63691;BME280;49837;57.280;27.070;2024-01-15T04:20:55;97006.97;;;-6.67;100.0
63691;BME280;49837;57.280;27.070;2024-01-15T04:21:55;97006.94;;;-6.7;100.0
63691;BME280;49837;57.280;27.070;2024-01-15T04:22:56;97008.18;;;-6.64;100.0
63691;BME280;49837;57.280;27.070;2024-01-15T04:23:56;97008.52;;;-6.6;100.0
63691;BME280;49837;57.280;27.070;2024-01-15T04:24:57;97004.23;;;-6.61;100.0
63691;BME280;49837;57.280;27.070;2024-01-15T04:25:57;97003.32;;;-6.59;100.0
63691;BME280;49837;57.280;27.070;2024-01-15T04:26:57;97002.5;;;-6.57;100.0
63691;BME280;49837;57.280;27.070;2024-01-15T04:27:58;97001.77;;;-6.51;100.0
63691;BME280;49837;57.280;27.070;2024-01-15T04:28:58;97001.36;;;-6.52;100.0
63691;BME280;49837;57.280;27.070;2024-01-15T04:29:59;97000.81;;;-6.53;100.0
63691;BME280;49837;57.280;27.070;2024-01-15T04:30:59;96996.12;;;-6.48;100.0
63691;BME280;49837;57.280;27.070;2024-01-15T04:31:59;96991.11;;;-6.43;100.0
63691;BME280;49837;57.280;27.070;2024-01-15T04:33:00;96989.05;;;-6.39;100.0
63691;BME280;49837;57.280;27.070;2024-01-15T04:34:00;96988.69;;;-6.38;100.0
63691;BME280;49837;57.280;27.070;2024-01-15T04:35:01;96988.4;;;-6.39;100.0
63691;BME280;49837;57.280;27.070;2024-01-15T04:36:02;96992.31;;;-6.4;100.0
63691;BME280;49837;57.280;27.070;2024-01-15T04:37:02;96991.5;;;-6.4;100.0
63691;BME280;49837;57.280;27.070;2024-01-15T04:38:02;96991.23;;;-6.4;100.0
63691;BME280;49837;57.280;27.070;2024-01-15T04:39:02;96989.72;;;-6.4;100.0
63691;BME280;49837;57.280;27.070;2024-01-15T04:40:03;96990.95;;;-6.36;100.0
63691;BME280;49837;57.280;27.070;2024-01-15T04:41:03;96988.16;;;-6.4;100.0
63691;BME280;49837;57.280;27.070;2024-01-15T04:42:04;96988.17;;;-6.41;100.0
63691;BME280;49837;57.280;27.070;2024-01-15T04:43:04;96988.14;;;-6.39;100.0
63691;BME280;49837;57.280;27.070;2024-01-15T04:44:04;96989.83;;;-6.38;100.0
63691;BME280;49837;57.280;27.070;2024-01-15T04:45:05;96986.38;;;-6.39;100.0
63691;BME280;49837;57.280;27.070;2024-01-15T04:46:08;96986.47;;;-6.4;100.0
63691;BME280;49837;57.280;27.070;2024-01-15T04:47:05;96984.16;;;-6.37;100.0
63691;BME280;49837;57.280;27.070;2024-01-15T04:48:06;96983.48;;;-6.37;100.0
63691;BME280;49837;57.280;27.070;2024-01-15T04:49:06;96982.41;;;-6.33;100.0
63691;BME280;49837;57.280;27.070;2024-01-15T04:50:07;96983.97;;;-6.28;100.0
63691;BME280;49837;57.280;27.070;2024-01-15T04:51:09;96978.3;;;-6.24;100.0
63691;BME280;49837;57.280;27.070;2024-01-15T04:52:07;96973.3;;;-6.21;100.0
63691;BME280;49837;57.280;27.070;2024-01-15T04:53:08;96973.23;;;-6.21;100.0
63691;BME280;49837;57.280;27.070;2024-01-15T04:54:09;96980.26;;;-6.2;100.0
63691;BME280;49837;57.280;27.070;2024-01-15T04:55:10;96977.8;;;-6.18;100.0
63691;BME280;49837;57.280;27.070;2024-01-15T04:56:10;96978.88;;;-6.19;100.0
63691;BME280;49837;57.280;27.070;2024-01-15T04:57:10;96980.73;;;-6.17;100.0
63691;BME280;49837;57.280;27.070;2024-01-15T04:58:11;96977.02;;;-6.14;100.0
63691;BME280;49837;57.280;27.070;2024-01-15T04:59:11;96974.86;;;-6.12;100.0
63691;BME280;49837;57.280;27.070;2024-01-15T05:00:12;96976.14;;;-6.09;100.0
63691;BME280;49837;57.280;27.070;2024-01-15T05:01:13;96974.57;;;-6.08;100.0
63691;BME280;49837;57.280;27.070;2024-01-15T05:02:13;96973.7;;;-6.05;100.0
63691;BME280;49837;57.280;27.070;2024-01-15T05:03:13;96971.7;;;-5.99;100.0
63691;BME280;49837;57.280;27.070;2024-01-15T05:04:14;96977.4;;;-5.98;100.0
63691;BME280;49837;57.280;27.070;2024-01-15T05:05:14;96975.53;;;-6.06;100.0
63691;BME280;49837;57.280;27.070;2024-01-15T05:06:15;96973.02;;;-6.11;100.0
63691;BME280;49837;57.280;27.070;2024-01-15T05:07:15;96972.94;;;-6.14;100.0
63691;BME280;49837;57.280;27.070;2024-01-15T05:08:15;96975.7;;;-6.17;100.0
63691;BME280;49837;57.280;27.070;2024-01-15T05:09:16;96975.03;;;-6.16;100.0
63691;BME280;49837;57.280;27.070;2024-01-15T05:10:16;96972.44;;;-6.18;100.0
63691;BME280;49837;57.280;27.070;2024-01-15T05:11:17;96972.09;;;-6.16;100.0
63691;BME280;49837;57.280;27.070;2024-01-15T05:12:17;96968.81;;;-6.12;100.0
63691;BME280;49837;57.280;27.070;2024-01-15T05:13:17;96969.58;;;-6.11;100.0
63691;BME280;49837;57.280;27.070;2024-01-15T05:14:18;96969.2;;;-6.12;100.0
63691;BME280;49837;57.280;27.070;2024-01-15T05:15:18;96971.33;;;-6.08;100.0
63691;BME280;49837;57.280;27.070;2024-01-15T05:16:19;96969.34;;;-6.06;100.0